Weather at Flugplatz Birrfeld

Public forecast

Using degrees Celsius for public forecast. Weather courtesy of forecast.io.

Closest aviation weather report (METAR) to Flugplatz Birrfeld

Closest report is Zürich Airport, 12.8 nm (23.7 km) E. Retrieved 2021/05/14 22:20 UTC (3 minutes ago):

LSZH 142220Z AUTO VRB01KT 9999 FEW039 09/06 Q1013 NOSIG

Closest aviation forecast (TAF) to Flugplatz Birrfeld

Closest forecast is Zürich Airport, 12.8 nm (23.7 km) E. Retrieved 2021/05/14 21:37 UTC (46 minutes ago):

TAF LSZH 142025Z 1421/1603 22006KT 9999 SCT050 BKN075 TX14/1512Z TN06/1504Z PROB40 TEMPO 1500/1509 CAVOK PROB30 TEMPO 1502/1507 9999 SHRA BECMG 1510/1514 24010KT RA PROB30 TEMPO 1511/1518 24012G25KT BECMG 1517/1520 VRB02KT BECMG 1523/1602 NSW